Time;durP1;ratioP1;P1;durP2;ratioP2;P2;SDS_P1;SDS_P2;PMS_P1;PMS_P2;Temp;Humidity;BMP_temperature;BMP_pressure;BME280_temperature;BME280_humidity;BME280_pressure;Samples;Min_cycle;Max_cycle;Signal;HPM_P1;HPM_P2
2022/01/30 00:00:21;;;;;;;7.80;1.80;;;;;;;3.18;100.00;96282.56;10369616;28;20222;-64
2022/01/30 00:05:22;;;;;;;14.80;1.80;;;;;;;3.09;100.00;96278.94;10369308;28;20777;-64
2022/01/30 00:10:23;;;;;;;11.57;2.10;;;;;;;3.04;100.00;96284.47;10369199;28;20240;-63
2022/01/30 00:15:36;;;;;;;14.73;2.27;;;;;;;3.05;100.00;96285.31;10373412;28;20553;-64
2022/01/30 00:20:39;;;;;;;16.27;2.50;;;;;;;3.08;100.00;96272.13;10376630;28;20229;-65
2022/01/30 00:25:51;;;;;;;12.17;2.17;;;;;;;2.99;100.00;96254.75;10376546;28;20217;-62
2022/01/30 00:30:53;;;;;;;12.17;2.20;;;;;;;2.95;100.00;96267.09;10376475;28;20228;-61
2022/01/30 00:35:53;;;;;;;12.93;2.17;;;;;;;2.87;100.00;96268.66;10376443;28;20185;-63
2022/01/30 00:40:54;;;;;;;16.90;2.10;;;;;;;2.83;100.00;96263.72;10375832;28;20683;-62
2022/01/30 00:45:54;;;;;;;11.43;2.00;;;;;;;2.54;100.00;96278.06;10376097;28;20590;-64
2022/01/30 00:50:55;;;;;;;9.53;1.70;;;;;;;2.54;100.00;96288.41;10375445;28;20220;-64
2022/01/30 00:55:55;;;;;;;5.10;1.90;;;;;;;2.47;100.00;96283.69;10358162;28;20610;-64
2022/01/30 01:00:56;;;;;;;8.87;1.77;;;;;;;2.46;100.00;96265.72;10373798;28;20209;-64
2022/01/30 01:05:58;;;;;;;4.10;1.30;;;;;;;2.40;100.00;96277.34;10375163;28;20752;-64
2022/01/30 01:26:38;;;;;;;1.20;1.03;;;;;;;2.11;100.00;96261.44;10373948;28;20609;-65
2022/01/30 01:31:39;;;;;;;4.10;1.10;;;;;;;2.00;100.00;96282.94;10356580;28;20217;-64
2022/01/30 01:36:39;;;;;;;2.03;1.20;;;;;;;1.97;100.00;96290.91;10356089;28;20247;-63
2022/01/30 01:41:40;;;;;;;0.80;0.80;;;;;;;1.71;100.00;96270.41;10355922;28;20205;-62
2022/01/30 01:46:42;;;;;;;1.40;1.13;;;;;;;1.77;100.00;96264.78;10356062;28;20228;-61
2022/01/30 01:51:48;;;;;;;7.73;2.40;;;;;;;2.02;100.00;96250.06;10355638;28;20750;-61
2022/01/30 01:56:49;;;;;;;4.97;2.10;;;;;;;2.18;100.00;96257.47;10355689;28;20212;-60
2022/01/30 02:02:00;;;;;;;10.20;2.27;;;;;;;2.41;100.00;96262.66;10354726;28;20217;-63
2022/01/30 02:07:44;;;;;;;7.17;1.70;;;;;;;2.56;100.00;96250.31;10371614;28;20201;-59
2022/01/30 02:12:31;;;;;;;4.73;1.73;;;;;;;2.49;100.00;96266.28;10353701;28;20719;-62
2022/01/30 02:28:13;;;;;;;6.53;2.00;;;;;;;2.34;100.00;96259.72;10354857;28;20200;-63
2022/01/30 02:33:13;;;;;;;4.67;1.60;;;;;;;2.25;100.00;96257.81;10371607;28;20228;-63
2022/01/30 02:38:16;;;;;;;4.03;1.63;;;;;;;2.20;100.00;96247.03;10371259;28;20189;-63
2022/01/30 02:43:20;;;;;;;9.70;1.77;;;;;;;2.09;100.00;96240.91;10371058;28;20217;-62
2022/01/30 02:48:32;;;;;;;13.60;2.00;;;;;;;2.03;100.00;96249.13;10353823;28;20256;-63
2022/01/30 02:53:38;;;;;;;9.90;2.13;;;;;;;2.05;100.00;96242.09;10353374;28;20300;-62
2022/01/30 02:58:38;;;;;;;8.37;1.77;;;;;;;2.05;100.00;96236.91;10371160;28;20190;-62
2022/01/30 03:03:39;;;;;;;7.30;1.73;;;;;;;2.06;100.00;96217.06;10352921;28;20645;-62
2022/01/30 03:08:40;;;;;;;12.20;1.97;;;;;;;1.91;100.00;96201.78;10370650;28;20564;-62
2022/01/30 03:13:40;;;;;;;9.63;2.17;;;;;;;1.82;100.00;96246.38;10352428;28;20251;-62
2022/01/30 03:18:43;;;;;;;22.77;2.33;;;;;;;1.95;100.00;96235.97;10352787;28;20193;-62
2022/01/30 03:23:43;;;;;;;14.03;2.63;;;;;;;1.96;100.00;96253.94;10369004;28;20223;-62
2022/01/30 03:28:45;;;;;;;20.83;2.37;;;;;;;1.99;100.00;96244.28;10352722;28;20195;-62
2022/01/30 03:33:57;;;;;;;12.90;1.97;;;;;;;2.05;100.00;96273.09;10352482;28;20240;-61
2022/01/30 03:39:06;;;;;;;11.83;2.47;;;;;;;2.06;100.00;96254.03;10368956;28;20193;-62
2022/01/30 03:44:07;;;;;;;11.10;2.23;;;;;;;2.08;100.00;96259.09;10369840;28;20237;-61
2022/01/30 03:49:07;;;;;;;15.10;2.83;;;;;;;2.00;100.00;96257.09;10356733;28;20239;-63
2022/01/30 03:54:14;;;;;;;18.93;2.63;;;;;;;2.06;100.00;96243.72;10360336;28;20217;-62
2022/01/30 03:59:15;;;;;;;12.20;1.83;;;;;;;2.12;100.00;96232.91;10360273;28;20225;-62
2022/01/30 04:04:16;;;;;;;8.53;2.33;;;;;;;2.17;100.00;96221.41;10359496;28;20783;-61
2022/01/30 04:09:16;;;;;;;15.10;2.53;;;;;;;2.01;100.00;96225.16;10359754;28;20199;-62
2022/01/30 04:14:36;;;;;;;12.07;2.70;;;;;;;1.96;100.00;96222.94;10359426;28;20188;-61
2022/01/30 04:20:01;;;;;;;8.70;2.47;;;;;;;1.94;100.00;96239.47;10359498;28;20213;-62
2022/01/30 04:25:24;;;;;;;8.83;2.07;;;;;;;1.96;100.00;96224.66;10359148;28;20220;-63
2022/01/30 04:30:37;;;;;;;3.10;1.93;;;;;;;1.93;100.00;96228.31;10376524;28;20217;-63
2022/01/30 04:35:44;;;;;;;10.07;2.13;;;;;;;1.94;100.00;96244.63;10376621;28;20196;-63
2022/01/30 04:52:22;;;;;;;10.13;2.23;;;;;;;1.95;100.00;96225.63;10358373;28;20213;-62
2022/01/30 04:57:49;;;;;;;9.10;2.07;;;;;;;1.77;100.00;96196.81;10357987;28;20193;-64
2022/01/30 05:03:08;;;;;;;11.27;2.30;;;;;;;1.72;100.00;96199.75;10356800;28;20279;-63
2022/01/30 05:08:34;;;;;;;9.37;2.27;;;;;;;1.81;100.00;96192.25;10357794;28;20212;-63
2022/01/30 05:14:03;;;;;;;13.23;2.27;;;;;;;1.94;100.00;96217.03;10356804;28;20233;-63
2022/01/30 05:19:32;;;;;;;16.03;2.60;;;;;;;1.89;100.00;96206.22;10357226;28;20217;-63
2022/01/30 05:25:01;;;;;;;7.07;1.80;;;;;;;1.92;100.00;96197.44;10357050;28;20216;-60
2022/01/30 05:30:11;;;;;;;11.97;2.07;;;;;;;1.84;100.00;96223.84;10357046;28;20205;-63
2022/01/30 05:35:33;;;;;;;8.57;2.33;;;;;;;1.90;100.00;96200.16;10357121;28;20189;-63
2022/01/30 05:40:58;;;;;;;15.23;2.07;;;;;;;1.96;99.26;96212.59;10356501;28;20656;-63
2022/01/30 05:46:37;;;;;;;9.57;1.70;;;;;;;1.97;99.40;96216.00;10356400;28;20217;-63
2022/01/30 05:51:57;;;;;;;14.40;2.07;;;;;;;2.03;98.76;96200.03;10355926;28;20232;-63
2022/01/30 05:57:02;;;;;;;13.73;2.90;;;;;;;2.12;97.99;96238.09;10355891;28;20680;-61
2022/01/30 06:02:03;;;;;;;11.47;2.23;;;;;;;2.13;98.19;96226.81;10355635;28;20227;-63
2022/01/30 06:07:06;;;;;;;10.73;1.87;;;;;;;2.08;99.18;96251.34;10355471;28;20806;-62
2022/01/30 06:12:07;;;;;;;9.40;1.93;;;;;;;2.11;98.71;96251.13;10372326;23;20240;-61
2022/01/30 06:17:09;;;;;;;10.93;2.00;;;;;;;2.09;98.97;96258.97;10394886;28;20677;-62
2022/01/30 06:22:27;;;;;;;12.67;2.07;;;;;;;2.11;98.27;96264.03;10412825;28;20239;-62
2022/01/30 06:27:46;;;;;;;7.80;1.57;;;;;;;2.18;97.29;96267.00;10413487;28;20192;-61
2022/01/30 06:33:09;;;;;;;14.83;2.37;;;;;;;2.08;97.47;96256.50;10412392;28;20760;-61
2022/01/30 06:38:28;;;;;;;6.93;1.80;;;;;;;2.13;96.95;96270.75;10412550;28;20193;-62
2022/01/30 06:43:47;;;;;;;6.57;1.80;;;;;;;2.08;97.72;96284.94;10412339;28;20271;-62
2022/01/30 06:49:06;;;;;;;11.53;1.80;;;;;;;2.21;96.65;96259.03;10412258;28;20823;-62
2022/01/30 06:54:44;;;;;;;7.43;1.50;;;;;;;2.13;96.52;96277.69;10411799;28;20239;-62
2022/01/30 07:00:04;;;;;;;15.40;2.47;;;;;;;2.06;97.82;96284.25;10412359;28;20197;-61
2022/01/30 07:05:24;;;;;;;10.87;2.17;;;;;;;2.06;99.17;96348.81;10411703;28;20236;-62
2022/01/30 07:10:42;;;;;;;7.93;1.90;;;;;;;2.09;99.77;96336.50;10393708;28;20682;-62
2022/01/30 07:15:42;;;;;;;6.40;1.77;;;;;;;2.13;98.54;96319.84;10410887;28;20242;-62
2022/01/30 07:20:42;;;;;;;10.80;1.77;;;;;;;2.14;98.78;96344.75;10410958;28;20549;-61
2022/01/30 07:25:44;;;;;;;7.50;2.00;;;;;;;2.18;97.38;96332.41;10410865;28;20228;-63
2022/01/30 07:30:44;;;;;;;8.00;2.07;;;;;;;2.17;98.50;96353.19;10411108;28;20253;-64
2022/01/30 07:35:45;;;;;;;16.67;2.40;;;;;;;2.11;97.33;96333.78;10410894;28;20709;-63
2022/01/30 07:40:45;;;;;;;10.63;2.13;;;;;;;2.10;95.58;96325.22;10410760;28;20671;-63
2022/01/30 07:45:45;;;;;;;11.33;2.40;;;;;;;2.19;95.39;96336.66;10410535;28;20772;-63
2022/01/30 07:50:46;;;;;;;15.97;2.33;;;;;;;2.14;95.60;96321.50;10411042;28;20569;-63
2022/01/30 07:55:46;;;;;;;10.90;2.47;;;;;;;2.13;95.76;96361.19;10410610;28;20359;-63
2022/01/30 08:00:46;;;;;;;7.47;2.10;;;;;;;2.20;93.77;96335.69;10410655;28;20209;-62
2022/01/30 08:05:47;;;;;;;11.67;2.53;;;;;;;2.19;93.89;96356.50;10410212;28;20640;-64
2022/01/30 08:10:47;;;;;;;11.20;2.13;;;;;;;2.16;93.69;96367.06;10410212;28;20608;-64
2022/01/30 08:15:48;;;;;;;10.97;2.60;;;;;;;2.15;95.14;96410.16;10409650;28;20236;-63
2022/01/30 08:20:48;;;;;;;11.33;2.17;;;;;;;2.07;95.61;96415.06;10410192;28;20177;-61
2022/01/30 08:25:49;;;;;;;16.53;4.03;;;;;;;2.09;95.93;96405.44;10409938;28;20228;-64
2022/01/30 08:30:50;;;;;;;11.63;2.53;;;;;;;2.00;95.05;96417.25;10409937;28;20242;-64
2022/01/30 08:35:51;;;;;;;15.10;2.87;;;;;;;2.04;96.33;96431.63;10413326;28;20302;-63
2022/01/30 08:40:51;;;;;;;18.07;3.27;;;;;;;2.05;93.89;96399.69;10417050;28;20200;-64
2022/01/30 08:45:52;;;;;;;20.30;5.10;;;;;;;2.09;94.39;96433.88;10416491;28;20703;-64
2022/01/30 08:50:52;;;;;;;20.80;4.40;;;;;;;2.07;95.53;96485.66;10416156;28;20687;-63
2022/01/30 08:55:53;;;;;;;16.77;2.63;;;;;;;2.04;93.48;96461.81;10396400;28;20208;-62
2022/01/30 09:00:53;;;;;;;17.63;2.50;;;;;;;2.09;90.34;96436.44;10410715;28;20207;-63
2022/01/30 09:05:53;;;;;;;28.00;4.40;;;;;;;2.12;90.56;96460.28;10416266;28;20238;-62
2022/01/30 09:10:54;;;;;;;10.63;3.43;;;;;;;2.14;89.94;96430.03;10416170;28;20196;-64
2022/01/30 09:15:57;;;;;;;13.27;3.43;;;;;;;2.26;89.32;96436.03;10406485;28;20291;-63
2022/01/30 09:20:57;;;;;;;12.03;2.30;;;;;;;2.29;87.34;96391.06;10404564;28;20276;-61
2022/01/30 09:25:58;;;;;;;16.03;2.83;;;;;;;2.34;87.22;96394.13;10405754;28;20783;-63
2022/01/30 09:30:58;;;;;;;11.83;2.60;;;;;;;2.38;86.16;96374.06;10402897;28;20196;-62
2022/01/30 09:35:58;;;;;;;21.73;3.80;;;;;;;2.31;87.04;96395.19;10403978;28;20212;-61
2022/01/30 09:40:59;;;;;;;14.67;2.73;;;;;;;2.49;85.28;96390.41;10401280;28;20248;-63
2022/01/30 09:46:00;;;;;;;16.73;2.97;;;;;;;2.51;84.98;96405.78;10388824;28;20239;-62
2022/01/30 09:51:02;;;;;;;17.97;3.20;;;;;;;2.50;85.17;96393.81;10414452;28;20582;-65
2022/01/30 09:56:04;;;;;;;23.03;3.13;;;;;;;2.55;84.63;96417.56;10414616;28;20573;-64
2022/01/30 10:01:04;;;;;;;13.00;2.70;;;;;;;2.54;85.13;96435.78;10414019;28;20208;-64
2022/01/30 10:06:08;;;;;;;14.33;3.10;;;;;;;2.52;84.38;96437.66;10414031;28;20225;-62
2022/01/30 10:11:28;;;;;;;25.67;3.60;;;;;;;2.74;82.84;96424.78;10398281;28;20197;-63
2022/01/30 10:16:42;;;;;;;21.00;3.10;;;;;;;2.53;83.32;96427.22;10369699;28;20192;-65
2022/01/30 10:21:44;;;;;;;17.27;3.00;;;;;;;2.48;84.75;96468.06;10369611;28;20215;-62
2022/01/30 10:26:44;;;;;;;14.63;2.60;;;;;;;2.52;83.29;96445.41;10405004;28;20613;-64
2022/01/30 10:32:07;;;;;;;13.57;2.47;;;;;;;2.43;84.09;96462.41;10410244;28;20217;-64
2022/01/30 10:37:13;;;;;;;20.43;3.13;;;;;;;2.48;83.68;96481.84;10411992;28;20208;-61
2022/01/30 10:42:29;;;;;;;14.00;3.47;;;;;;;2.38;84.33;96483.44;10412648;28;20217;-62
2022/01/30 10:47:32;;;;;;;20.97;2.80;;;;;;;2.39;84.68;96512.69;10414815;28;20259;-62
2022/01/30 10:52:32;;;;;;;21.97;3.60;;;;;;;2.37;84.89;96510.22;10426173;28;20214;-61
2022/01/30 10:57:40;;;;;;;24.07;3.13;;;;;;;2.42;85.07;96539.16;10410729;28;20193;-64
2022/01/30 11:02:40;;;;;;;17.33;3.37;;;;;;;2.32;84.35;96513.13;10411642;28;20319;-64
2022/01/30 11:07:41;;;;;;;20.83;3.40;;;;;;;2.25;84.48;96516.28;10411177;28;20303;-63
2022/01/30 11:12:46;;;;;;;23.40;3.57;;;;;;;2.28;84.40;96531.56;10410364;28;20231;-63
2022/01/30 11:17:47;;;;;;;15.17;2.90;;;;;;;2.31;84.32;96529.59;10410230;28;20682;-62
2022/01/30 11:22:47;;;;;;;21.77;3.80;;;;;;;2.16;84.27;96545.34;10411116;28;20242;-64
2022/01/30 11:27:49;;;;;;;9.00;2.47;;;;;;;2.21;83.19;96515.66;10394057;28;20604;-61
2022/01/30 11:32:50;;;;;;;18.93;3.47;;;;;;;2.27;82.32;96509.25;10410904;28;20675;-61
2022/01/30 11:37:51;;;;;;;18.90;3.63;;;;;;;2.24;82.34;96525.78;10391906;28;20201;-61
2022/01/30 11:42:51;;;;;;;16.93;3.73;;;;;;;2.21;82.75;96544.09;10402566;28;20228;-61
2022/01/30 11:47:58;;;;;;;16.40;2.70;;;;;;;2.27;82.17;96501.50;10398695;28;20193;-64
2022/01/30 11:53:04;;;;;;;25.47;4.07;;;;;;;2.36;81.55;96525.84;10400570;28;20304;-63
2022/01/30 11:58:05;;;;;;;28.13;4.13;;;;;;;2.35;81.03;96532.78;10410765;28;20215;-64
2022/01/30 12:03:59;;;;;;;25.97;3.47;;;;;;;2.38;80.67;96526.56;10410590;28;20227;-62
2022/01/30 12:09:20;;;;;;;24.37;3.30;;;;;;;2.41;80.74;96540.09;10325886;28;20200;-63
2022/01/30 12:14:20;;;;;;;22.30;4.20;;;;;;;2.41;80.25;96528.94;10464027;23;20243;-58
2022/01/30 12:19:48;;;;;;;23.70;3.63;;;;;;;2.43;79.70;96553.72;10454721;28;20229;-62
2022/01/30 12:24:52;;;;;;;26.00;4.07;;;;;;;2.34;80.32;96546.63;10454478;28;20224;-58
2022/01/30 12:29:53;;;;;;;23.33;3.90;;;;;;;2.26;81.00;96573.03;10458205;28;20307;-57
2022/01/30 12:34:56;;;;;;;20.50;3.93;;;;;;;2.25;81.70;96580.88;10458275;28;20250;-62
2022/01/30 12:39:57;;;;;;;25.40;4.10;;;;;;;2.39;80.60;96565.25;10457859;28;20210;-60
2022/01/30 12:44:59;;;;;;;31.93;5.17;;;;;;;2.23;80.98;96577.59;10457794;28;20223;-59
2022/01/30 12:50:02;;;;;;;29.53;4.30;;;;;;;2.28;82.14;96594.44;10457522;28;20662;-60
2022/01/30 12:55:09;;;;;;;29.13;4.77;;;;;;;2.24;81.08;96590.41;10457306;28;20698;-62
2022/01/30 13:00:11;;;;;;;29.80;4.33;;;;;;;2.23;82.57;96595.69;10457350;28;20224;-62
2022/01/30 13:05:13;;;;;;;23.00;4.60;;;;;;;2.22;81.78;96607.78;10456727;28;20228;-62
2022/01/30 13:10:13;;;;;;;25.20;4.00;;;;;;;2.28;82.40;96640.97;10457733;28;20188;-62
2022/01/30 13:15:19;;;;;;;35.27;5.67;;;;;;;2.30;81.84;96630.50;10484703;28;20231;-61
2022/01/30 13:20:24;;;;;;;26.93;4.53;;;;;;;2.26;81.19;96647.16;10497392;28;20225;-62
2022/01/30 13:25:24;;;;;;;25.30;4.67;;;;;;;2.34;81.06;96637.09;10497528;28;20222;-62
2022/01/30 13:30:27;;;;;;;29.63;4.77;;;;;;;2.39;80.86;96627.28;10495343;28;20195;-61
2022/01/30 13:35:31;;;;;;;22.87;5.00;;;;;;;2.32;79.88;96626.88;10489589;28;20199;-60
2022/01/30 13:40:43;;;;;;;28.87;4.50;;;;;;;2.35;80.11;96630.19;10497957;28;20187;-60
2022/01/30 13:51:03;;;;;;;28.37;4.60;;;;;;;2.25;80.85;96655.84;10497113;28;20194;-55
2022/01/30 13:56:07;;;;;;;22.87;4.43;;;;;;;2.28;79.99;96659.06;10496541;28;20214;-59
2022/01/30 14:01:12;;;;;;;23.23;4.27;;;;;;;2.34;80.19;96649.22;10491343;28;20194;-58
2022/01/30 14:06:22;;;;;;;25.43;4.80;;;;;;;2.33;80.62;96674.25;10495974;28;20689;-59
2022/01/30 14:11:36;;;;;;;23.37;4.77;;;;;;;2.32;79.96;96668.22;10495881;28;20195;-59
2022/01/30 14:16:43;;;;;;;25.83;5.23;;;;;;;2.41;79.85;96676.28;10495166;28;20227;-57
2022/01/30 14:21:44;;;;;;;19.27;3.60;;;;;;;2.35;79.73;96687.06;10495136;28;20247;-60
2022/01/30 14:26:44;;;;;;;27.73;4.83;;;;;;;2.34;80.54;96711.25;10495297;28;20237;-58
2022/01/30 14:31:57;;;;;;;26.27;4.53;;;;;;;2.32;79.79;96698.44;10493517;28;20195;-58
2022/01/30 14:37:00;;;;;;;27.23;5.40;;;;;;;2.24;80.98;96721.41;10495100;28;20191;-61
2022/01/30 14:42:03;;;;;;;30.60;4.70;;;;;;;2.17;80.47;96735.66;10494853;28;20223;-61
2022/01/30 14:47:04;;;;;;;26.53;4.43;;;;;;;2.27;80.81;96734.94;10495259;28;20203;-60
2022/01/30 14:52:06;;;;;;;29.73;4.53;;;;;;;2.27;80.65;96731.53;10494817;28;20227;-58
2022/01/30 14:57:07;;;;;;;21.23;4.37;;;;;;;2.22;81.08;96770.63;10494702;28;20230;-58
2022/01/30 15:02:07;;;;;;;30.57;5.53;;;;;;;2.19;81.67;96764.81;10494178;28;20243;-58
2022/01/30 15:07:07;;;;;;;23.33;4.80;;;;;;;2.19;81.45;96759.63;10492721;28;20195;-60
2022/01/30 15:12:12;;;;;;;19.93;4.17;;;;;;;2.25;80.49;96739.38;10494055;28;20231;-58
2022/01/30 15:17:19;;;;;;;31.80;5.80;;;;;;;2.18;80.63;96739.91;10493807;28;20195;-61
2022/01/30 15:22:22;;;;;;;26.93;4.20;;;;;;;2.11;81.17;96762.72;10493916;28;20594;-60
2022/01/30 15:27:22;;;;;;;28.40;4.40;;;;;;;2.13;80.76;96729.88;10491214;28;20269;-61
2022/01/30 15:32:23;;;;;;;31.07;4.90;;;;;;;2.05;81.03;96751.06;10493586;28;20229;-61
2022/01/30 15:37:24;;;;;;;33.63;5.17;;;;;;;1.96;83.07;96760.25;10493856;28;20586;-61
2022/01/30 15:42:26;;;;;;;26.43;5.33;;;;;;;1.93;85.12;96800.94;10493614;28;20280;-61
2022/01/30 15:52:47;;;;;;;35.40;4.97;;;;;;;1.96;86.07;96800.75;10501767;28;20207;-61
2022/01/30 15:57:47;;;;;;;26.03;4.03;;;;;;;1.78;87.83;96832.03;10501795;28;20195;-61
2022/01/30 16:02:48;;;;;;;27.80;5.23;;;;;;;1.81;87.86;96841.34;10501255;28;20313;-61
2022/01/30 16:07:48;;;;;;;29.00;5.33;;;;;;;1.78;87.54;96839.78;10501700;28;20202;-61
2022/01/30 16:18:01;;;;;;;29.20;4.77;;;;;;;1.77;89.10;96843.28;10499662;28;20190;-61
2022/01/30 16:23:04;;;;;;;25.33;4.77;;;;;;;1.70;89.97;96842.03;10499334;28;20231;-61
2022/01/30 16:28:05;;;;;;;30.53;5.27;;;;;;;1.73;90.02;96836.66;10499890;28;20320;-62
2022/01/30 16:33:05;;;;;;;27.87;5.00;;;;;;;1.58;90.52;96860.88;10500453;28;20231;-62
2022/01/30 16:38:06;;;;;;;28.43;4.93;;;;;;;1.69;89.95;96844.72;10500632;28;20646;-61
2022/01/30 16:43:11;;;;;;;25.07;4.47;;;;;;;1.73;88.75;96816.00;10499529;28;20283;-60
2022/01/30 16:48:18;;;;;;;28.47;4.73;;;;;;;1.71;87.16;96801.53;10496724;28;20190;-61
2022/01/30 16:53:18;;;;;;;30.67;4.97;;;;;;;1.69;86.79;96793.06;10497506;28;20213;-62
2022/01/30 16:58:19;;;;;;;31.00;4.20;;;;;;;1.65;87.50;96810.50;10498594;28;20199;-58
2022/01/30 17:03:19;;;;;;;27.23;5.00;;;;;;;1.64;88.02;96826.94;10498656;28;20222;-60
2022/01/30 17:08:20;;;;;;;23.13;4.80;;;;;;;1.70;88.40;96836.00;10496565;28;20195;-59
2022/01/30 17:13:20;;;;;;;30.30;4.63;;;;;;;1.68;88.53;96833.53;10496888;28;20242;-59
2022/01/30 17:18:21;;;;;;;38.27;5.87;;;;;;;1.58;88.93;96851.38;10498613;28;20198;-61
2022/01/30 17:23:22;;;;;;;28.30;5.73;;;;;;;1.57;88.47;96841.16;10497963;28;20229;-61
2022/01/30 17:28:24;;;;;;;27.70;4.90;;;;;;;1.51;88.04;96833.78;10498248;28;20194;-60
2022/01/30 17:33:25;;;;;;;19.20;4.50;;;;;;;1.57;87.04;96825.66;10497690;28;20217;-61
2022/01/30 17:38:25;;;;;;;25.97;5.07;;;;;;;1.58;87.53;96829.91;10497551;28;20274;-59
2022/01/30 17:43:26;;;;;;;32.20;4.87;;;;;;;1.54;87.85;96847.31;10496934;28;20230;-58
2022/01/30 17:48:26;;;;;;;31.20;4.50;;;;;;;1.50;89.16;96873.44;10497078;28;20203;-61
2022/01/30 17:53:26;;;;;;;39.87;4.73;;;;;;;1.58;89.74;96877.19;10494831;28;20651;-62
2022/01/30 17:58:27;;;;;;;31.60;5.53;;;;;;;1.49;91.13;96889.88;10497213;28;20676;-62
2022/01/30 18:03:27;;;;;;;32.23;5.57;;;;;;;1.41;91.57;96867.94;10497014;28;20226;-60
2022/01/30 18:08:28;;;;;;;27.83;4.60;;;;;;;1.43;91.94;96855.75;10496711;28;20202;-62
2022/01/30 18:13:29;;;;;;;23.83;4.47;;;;;;;1.45;91.71;96847.09;10496476;28;20300;-61
2022/01/30 18:18:30;;;;;;;26.97;5.87;;;;;;;1.37;91.86;96853.56;10496540;28;20191;-61
2022/01/30 18:23:30;;;;;;;24.00;4.43;;;;;;;1.31;91.06;96841.03;10494562;28;20692;-61
2022/01/30 18:28:30;;;;;;;39.93;5.50;;;;;;;1.22;90.65;96849.34;10476389;28;20345;-61
2022/01/30 18:33:31;;;;;;;24.90;5.47;;;;;;;1.25;89.81;96838.84;10491959;28;20222;-61
2022/01/30 18:38:46;;;;;;;28.33;4.57;;;;;;;1.33;88.59;96818.56;10492669;28;20194;-61
2022/01/30 18:43:50;;;;;;;33.40;5.17;;;;;;;1.29;87.59;96826.56;10493304;28;20229;-61
2022/01/30 18:48:51;;;;;;;25.47;4.20;;;;;;;1.27;87.62;96838.75;10491756;28;20192;-61
2022/01/30 18:53:51;;;;;;;21.70;4.10;;;;;;;1.31;85.62;96815.22;10476690;28;20207;-61
2022/01/30 18:58:51;;;;;;;27.43;5.43;;;;;;;1.21;85.54;96809.81;10494192;28;20187;-60
2022/01/30 19:03:52;;;;;;;31.53;4.43;;;;;;;1.26;85.47;96814.69;10494224;28;20761;-60
2022/01/30 19:08:52;;;;;;;32.73;4.73;;;;;;;1.24;86.01;96812.22;10494000;28;20191;-60
2022/01/30 19:13:53;;;;;;;29.87;6.27;;;;;;;1.25;86.24;96816.44;10492858;28;20229;-60
2022/01/30 19:18:54;;;;;;;30.23;4.20;;;;;;;1.32;86.61;96816.88;10492942;28;20201;-60
2022/01/30 19:23:55;;;;;;;23.43;4.63;;;;;;;1.30;86.69;96808.41;10492826;28;20815;-60
2022/01/30 19:28:56;;;;;;;38.80;5.60;;;;;;;1.18;87.62;96814.31;10493483;28;20210;-60
2022/01/30 19:33:58;;;;;;;23.67;4.50;;;;;;;1.19;86.89;96796.16;10492721;28;20260;-60
2022/01/30 19:38:58;;;;;;;35.13;4.40;;;;;;;1.19;87.33;96806.50;10493059;28;20199;-60
2022/01/30 19:43:59;;;;;;;33.40;5.43;;;;;;;1.25;87.32;96800.13;10490397;28;20227;-60
2022/01/30 19:48:59;;;;;;;27.83;4.77;;;;;;;1.18;88.73;96828.06;10491255;28;20194;-61
2022/01/30 19:54:00;;;;;;;26.17;4.60;;;;;;;1.11;89.36;96807.91;10488191;28;20208;-61
2022/01/30 19:59:00;;;;;;;30.73;5.10;;;;;;;1.04;90.03;96813.47;10490028;28;20199;-62
2022/01/30 20:04:01;;;;;;;26.13;5.03;;;;;;;0.92;90.63;96814.22;10492086;28;20241;-60
2022/01/30 20:09:03;;;;;;;29.60;5.23;;;;;;;0.94;91.06;96822.69;10492410;28;20202;-60
2022/01/30 20:14:03;;;;;;;29.77;5.47;;;;;;;0.99;91.71;96828.38;10491507;28;20242;-61
2022/01/30 20:19:03;;;;;;;35.43;5.63;;;;;;;1.06;91.26;96834.81;10492066;28;20206;-62
2022/01/30 20:24:04;;;;;;;28.57;6.47;;;;;;;0.88;92.29;96829.03;10491834;28;20223;-62
2022/01/30 20:29:05;;;;;;;32.50;4.70;;;;;;;1.01;91.35;96821.38;10492182;28;20198;-62
2022/01/30 20:34:06;;;;;;;28.70;4.47;;;;;;;1.00;91.09;96811.97;10498642;28;20272;-61
2022/01/30 20:39:06;;;;;;;38.53;5.30;;;;;;;0.98;90.27;96807.81;10499498;28;20221;-60
2022/01/30 20:44:07;;;;;;;27.23;5.47;;;;;;;0.99;89.91;96791.44;10498718;28;20226;-61
2022/01/30 20:49:07;;;;;;;37.33;4.90;;;;;;;1.02;89.53;96779.16;10499028;28;20336;-61
2022/01/30 20:54:09;;;;;;;35.27;4.70;;;;;;;1.03;89.08;96770.50;10498784;28;20218;-62
2022/01/30 20:59:09;;;;;;;33.20;5.27;;;;;;;0.92;89.30;96780.69;10499014;28;20202;-61
2022/01/30 21:04:10;;;;;;;28.47;4.40;;;;;;;1.00;88.69;96775.88;10499010;28;20582;-62
2022/01/30 21:09:10;;;;;;;27.33;5.23;;;;;;;0.91;88.70;96775.63;10498417;28;20602;-61
2022/01/30 21:14:12;;;;;;;21.83;3.90;;;;;;;0.91;87.98;96766.13;10496119;28;20596;-62
2022/01/30 21:19:13;;;;;;;25.67;4.40;;;;;;;0.92;88.02;96770.38;10496837;28;20621;-62
2022/01/30 21:24:15;;;;;;;24.60;4.53;;;;;;;0.87;88.72;96765.50;10497861;28;20218;-62
2022/01/30 21:29:15;;;;;;;23.93;3.80;;;;;;;0.96;88.27;96740.84;10498135;28;20205;-62
2022/01/30 21:34:16;;;;;;;33.53;4.43;;;;;;;0.89;88.49;96742.19;10497727;28;20764;-62
2022/01/30 21:39:17;;;;;;;23.53;4.90;;;;;;;0.84;88.23;96734.75;10497692;28;20630;-61
2022/01/30 21:44:18;;;;;;;33.17;4.17;;;;;;;0.88;88.15;96732.78;10496853;28;20263;-61
2022/01/30 21:49:18;;;;;;;29.93;4.23;;;;;;;0.84;88.18;96721.84;10497036;28;20702;-61
2022/01/30 21:54:19;;;;;;;32.20;4.80;;;;;;;0.93;87.58;96710.09;10496891;28;20211;-62
2022/01/30 21:59:20;;;;;;;26.73;4.10;;;;;;;0.89;87.40;96714.63;10496842;28;20186;-60
2022/01/30 22:04:20;;;;;;;27.27;5.13;;;;;;;0.85;87.87;96709.78;10496376;28;20701;-61
2022/01/30 22:09:21;;;;;;;30.23;4.23;;;;;;;0.76;87.96;96708.59;10496185;28;20206;-61
2022/01/30 22:14:39;;;;;;;29.53;4.83;;;;;;;0.74;88.62;96725.09;10495289;28;20592;-62
2022/01/30 22:19:40;;;;;;;24.27;4.60;;;;;;;0.77;88.52;96691.38;10496225;28;20199;-61
2022/01/30 22:24:40;;;;;;;36.07;4.40;;;;;;;0.74;88.42;96681.25;10495528;28;20494;-61
2022/01/30 22:29:40;;;;;;;31.67;4.07;;;;;;;0.68;88.57;96682.47;10495391;28;20202;-61
2022/01/30 22:34:41;;;;;;;25.00;4.43;;;;;;;0.65;88.57;96670.59;10495314;28;20265;-61
2022/01/30 22:39:41;;;;;;;30.20;4.50;;;;;;;0.67;88.89;96648.13;10495155;28;20206;-61
2022/01/30 22:44:42;;;;;;;25.03;4.83;;;;;;;0.63;89.24;96676.75;10494997;28;20248;-61
2022/01/30 22:49:42;;;;;;;24.87;5.03;;;;;;;0.52;88.91;96649.06;10494748;28;20227;-61
2022/01/30 22:54:42;;;;;;;24.50;4.50;;;;;;;0.69;88.16;96641.13;10492463;28;20267;-61
2022/01/30 22:59:43;;;;;;;31.23;4.40;;;;;;;0.60;88.85;96651.16;10489645;28;20197;-61
2022/01/30 23:04:46;;;;;;;25.80;5.07;;;;;;;0.60;88.36;96648.59;10494369;28;20230;-61
2022/01/30 23:09:49;;;;;;;29.57;4.73;;;;;;;0.49;88.44;96649.25;10494766;28;20240;-61
2022/01/30 23:14:49;;;;;;;28.40;4.53;;;;;;;0.56;88.76;96642.81;10493612;28;20234;-61
2022/01/30 23:19:52;;;;;;;20.97;3.93;;;;;;;0.64;87.78;96607.06;10494061;28;20648;-59
2022/01/30 23:24:53;;;;;;;34.00;5.47;;;;;;;0.62;87.53;96605.53;10494142;28;20223;-61
2022/01/30 23:29:56;;;;;;;24.83;4.43;;;;;;;0.49;87.74;96596.00;10494132;28;20214;-61
2022/01/30 23:34:56;;;;;;;32.40;4.17;;;;;;;0.52;88.19;96600.09;10494068;28;20247;-61
2022/01/30 23:40:00;;;;;;;19.93;3.83;;;;;;;0.53;87.55;96561.34;10493534;28;20221;-61
2022/01/30 23:45:01;;;;;;;26.77;4.47;;;;;;;0.47;87.21;96546.28;10493536;28;20222;-61
2022/01/30 23:50:01;;;;;;;28.47;5.20;;;;;;;0.47;87.25;96546.28;10493751;28;20603;-61
2022/01/30 23:55:03;;;;;;;26.87;4.43;;;;;;;0.42;87.70;96542.34;10493491;28;20236;-61
